sensor_id;sensor_type;location;lat;lon;timestamp;P1;durP1;ratioP1;P2;durP2;ratioP2
6561;SDS011;3314;50.890;4.722;2023-01-08T00:00:37;9.9;;;1.9;;
6561;SDS011;3314;50.890;4.722;2023-01-08T00:02:36;8.4;;;1.6;;
6561;SDS011;3314;50.890;4.722;2023-01-08T00:04:36;6.9;;;1.7;;
6561;SDS011;3314;50.890;4.722;2023-01-08T00:06:36;11.9;;;2.2;;
6561;SDS011;3314;50.890;4.722;2023-01-08T00:08:35;7.7;;;2.3;;
6561;SDS011;3314;50.890;4.722;2023-01-08T00:10:35;8.0;;;2.2;;
6561;SDS011;3314;50.890;4.722;2023-01-08T00:12:35;9.4;;;1.8;;
6561;SDS011;3314;50.890;4.722;2023-01-08T00:14:34;8.0;;;2.5;;
6561;SDS011;3314;50.890;4.722;2023-01-08T00:16:34;10.0;;;1.7;;
6561;SDS011;3314;50.890;4.722;2023-01-08T00:18:34;10.8;;;1.9;;
6561;SDS011;3314;50.890;4.722;2023-01-08T00:20:34;10.6;;;2.1;;
6561;SDS011;3314;50.890;4.722;2023-01-08T00:22:33;10.3;;;2.6;;
6561;SDS011;3314;50.890;4.722;2023-01-08T00:24:33;9.6;;;1.9;;
6561;SDS011;3314;50.890;4.722;2023-01-08T00:26:33;8.1;;;1.5;;
6561;SDS011;3314;50.890;4.722;2023-01-08T00:28:33;7.0;;;1.6;;
6561;SDS011;3314;50.890;4.722;2023-01-08T00:30:33;8.6;;;1.9;;
6561;SDS011;3314;50.890;4.722;2023-01-08T00:32:33;8.5;;;1.9;;
6561;SDS011;3314;50.890;4.722;2023-01-08T00:34:33;9.4;;;2.3;;
6561;SDS011;3314;50.890;4.722;2023-01-08T00:36:33;6.5;;;1.6;;
6561;SDS011;3314;50.890;4.722;2023-01-08T00:38:33;8.2;;;1.8;;
6561;SDS011;3314;50.890;4.722;2023-01-08T00:40:33;9.6;;;1.8;;
6561;SDS011;3314;50.890;4.722;2023-01-08T00:42:33;7.2;;;1.6;;
6561;SDS011;3314;50.890;4.722;2023-01-08T00:44:33;9.4;;;1.8;;
6561;SDS011;3314;50.890;4.722;2023-01-08T00:46:32;9.7;;;1.7;;
6561;SDS011;3314;50.890;4.722;2023-01-08T00:48:36;9.9;;;2.1;;
6561;SDS011;3314;50.890;4.722;2023-01-08T00:50:24;10.7;;;2.2;;
6561;SDS011;3314;50.890;4.722;2023-01-08T00:52:24;8.0;;;1.6;;
6561;SDS011;3314;50.890;4.722;2023-01-08T00:54:24;7.4;;;2.0;;
6561;SDS011;3314;50.890;4.722;2023-01-08T00:56:23;7.0;;;1.8;;
6561;SDS011;3314;50.890;4.722;2023-01-08T00:58:23;9.4;;;1.8;;
6561;SDS011;3314;50.890;4.722;2023-01-08T01:00:23;8.5;;;1.9;;
6561;SDS011;3314;50.890;4.722;2023-01-08T01:02:23;9.0;;;2.1;;
6561;SDS011;3314;50.890;4.722;2023-01-08T01:04:23;8.5;;;1.6;;
6561;SDS011;3314;50.890;4.722;2023-01-08T01:06:23;9.3;;;2.1;;
6561;SDS011;3314;50.890;4.722;2023-01-08T01:08:23;5.9;;;1.4;;
6561;SDS011;3314;50.890;4.722;2023-01-08T01:10:22;8.1;;;1.6;;
6561;SDS011;3314;50.890;4.722;2023-01-08T01:12:22;6.9;;;1.0;;
6561;SDS011;3314;50.890;4.722;2023-01-08T01:14:22;4.9;;;0.7;;
6561;SDS011;3314;50.890;4.722;2023-01-08T01:16:22;5.7;;;0.7;;
6561;SDS011;3314;50.890;4.722;2023-01-08T01:18:21;5.5;;;0.9;;
6561;SDS011;3314;50.890;4.722;2023-01-08T01:20:23;5.2;;;0.7;;
6561;SDS011;3314;50.890;4.722;2023-01-08T01:22:22;8.0;;;2.0;;
6561;SDS011;3314;50.890;4.722;2023-01-08T01:24:24;6.9;;;0.8;;
6561;SDS011;3314;50.890;4.722;2023-01-08T01:26:24;7.2;;;0.9;;
6561;SDS011;3314;50.890;4.722;2023-01-08T01:28:24;7.6;;;1.4;;
6561;SDS011;3314;50.890;4.722;2023-01-08T01:30:23;7.3;;;0.9;;
6561;SDS011;3314;50.890;4.722;2023-01-08T01:32:23;8.5;;;1.6;;
6561;SDS011;3314;50.890;4.722;2023-01-08T01:34:23;11.4;;;1.1;;
6561;SDS011;3314;50.890;4.722;2023-01-08T01:36:23;6.4;;;0.8;;
6561;SDS011;3314;50.890;4.722;2023-01-08T01:38:23;9.0;;;0.9;;
6561;SDS011;3314;50.890;4.722;2023-01-08T01:40:23;9.0;;;0.9;;
6561;SDS011;3314;50.890;4.722;2023-01-08T01:42:53;6.4;;;0.6;;
6561;SDS011;3314;50.890;4.722;2023-01-08T01:44:38;7.3;;;1.1;;
6561;SDS011;3314;50.890;4.722;2023-01-08T01:46:17;5.9;;;0.7;;
6561;SDS011;3314;50.890;4.722;2023-01-08T01:48:18;6.3;;;1.2;;
6561;SDS011;3314;50.890;4.722;2023-01-08T01:50:19;7.7;;;0.9;;
6561;SDS011;3314;50.890;4.722;2023-01-08T01:52:21;5.1;;;0.6;;
6561;SDS011;3314;50.890;4.722;2023-01-08T01:54:22;7.6;;;0.9;;
6561;SDS011;3314;50.890;4.722;2023-01-08T01:56:22;6.8;;;0.7;;
6561;SDS011;3314;50.890;4.722;2023-01-08T01:58:22;6.4;;;0.8;;
6561;SDS011;3314;50.890;4.722;2023-01-08T02:00:11;8.3;;;1.0;;
6561;SDS011;3314;50.890;4.722;2023-01-08T02:02:11;5.7;;;0.7;;
6561;SDS011;3314;50.890;4.722;2023-01-08T02:04:11;7.6;;;1.0;;
6561;SDS011;3314;50.890;4.722;2023-01-08T02:06:15;5.6;;;0.9;;
6561;SDS011;3314;50.890;4.722;2023-01-08T02:08:17;9.5;;;1.0;;
6561;SDS011;3314;50.890;4.722;2023-01-08T02:10:19;7.7;;;1.0;;
6561;SDS011;3314;50.890;4.722;2023-01-08T02:12:20;6.1;;;0.9;;
6561;SDS011;3314;50.890;4.722;2023-01-08T02:14:12;7.1;;;0.8;;
6561;SDS011;3314;50.890;4.722;2023-01-08T02:16:14;6.2;;;0.9;;
6561;SDS011;3314;50.890;4.722;2023-01-08T02:18:16;6.5;;;1.1;;
6561;SDS011;3314;50.890;4.722;2023-01-08T02:20:18;7.7;;;1.0;;
6561;SDS011;3314;50.890;4.722;2023-01-08T02:22:12;8.4;;;1.0;;
6561;SDS011;3314;50.890;4.722;2023-01-08T02:24:15;7.8;;;0.8;;
6561;SDS011;3314;50.890;4.722;2023-01-08T02:26:09;7.9;;;1.2;;
6561;SDS011;3314;50.890;4.722;2023-01-08T02:28:10;8.0;;;1.0;;
6561;SDS011;3314;50.890;4.722;2023-01-08T02:30:11;8.5;;;0.8;;
6561;SDS011;3314;50.890;4.722;2023-01-08T02:32:10;6.6;;;0.7;;
6561;SDS011;3314;50.890;4.722;2023-01-08T02:34:10;9.2;;;1.2;;
6561;SDS011;3314;50.890;4.722;2023-01-08T02:36:28;6.5;;;0.9;;
6561;SDS011;3314;50.890;4.722;2023-01-08T02:38:05;7.3;;;1.2;;
6561;SDS011;3314;50.890;4.722;2023-01-08T02:40:08;6.5;;;1.0;;
6561;SDS011;3314;50.890;4.722;2023-01-08T02:42:11;5.3;;;0.8;;
6561;SDS011;3314;50.890;4.722;2023-01-08T02:44:03;5.9;;;0.8;;
6561;SDS011;3314;50.890;4.722;2023-01-08T02:46:04;6.6;;;0.8;;
6561;SDS011;3314;50.890;4.722;2023-01-08T02:48:06;6.1;;;0.8;;
6561;SDS011;3314;50.890;4.722;2023-01-08T02:50:09;7.8;;;1.1;;
6561;SDS011;3314;50.890;4.722;2023-01-08T02:52:11;9.2;;;1.1;;
6561;SDS011;3314;50.890;4.722;2023-01-08T02:54:02;9.3;;;1.5;;
6561;SDS011;3314;50.890;4.722;2023-01-08T02:56:04;6.0;;;1.2;;
6561;SDS011;3314;50.890;4.722;2023-01-08T02:58:05;11.6;;;1.2;;
6561;SDS011;3314;50.890;4.722;2023-01-08T03:00:06;10.5;;;1.4;;
6561;SDS011;3314;50.890;4.722;2023-01-08T03:02:05;7.3;;;1.2;;
6561;SDS011;3314;50.890;4.722;2023-01-08T03:04:06;7.2;;;1.2;;
6561;SDS011;3314;50.890;4.722;2023-01-08T03:06:09;9.8;;;1.6;;
6561;SDS011;3314;50.890;4.722;2023-01-08T03:07:59;12.4;;;1.4;;
6561;SDS011;3314;50.890;4.722;2023-01-08T03:10:00;8.8;;;1.5;;
6561;SDS011;3314;50.890;4.722;2023-01-08T03:12:02;7.9;;;2.0;;
6561;SDS011;3314;50.890;4.722;2023-01-08T03:14:04;7.0;;;1.4;;
6561;SDS011;3314;50.890;4.722;2023-01-08T03:16:07;6.9;;;1.2;;
6561;SDS011;3314;50.890;4.722;2023-01-08T03:18:08;9.1;;;2.0;;
6561;SDS011;3314;50.890;4.722;2023-01-08T03:19:59;9.5;;;1.9;;
6561;SDS011;3314;50.890;4.722;2023-01-08T03:21:59;6.3;;;1.2;;
6561;SDS011;3314;50.890;4.722;2023-01-08T03:24:01;10.1;;;1.2;;
6561;SDS011;3314;50.890;4.722;2023-01-08T03:26:02;10.1;;;1.4;;
6561;SDS011;3314;50.890;4.722;2023-01-08T03:28:04;6.5;;;1.5;;
6561;SDS011;3314;50.890;4.722;2023-01-08T03:29:56;7.8;;;1.1;;
6561;SDS011;3314;50.890;4.722;2023-01-08T03:31:59;7.1;;;1.3;;
6561;SDS011;3314;50.890;4.722;2023-01-08T03:33:59;6.3;;;1.1;;
6561;SDS011;3314;50.890;4.722;2023-01-08T03:36:00;6.4;;;0.9;;
6561;SDS011;3314;50.890;4.722;2023-01-08T03:38:03;6.2;;;0.6;;
6561;SDS011;3314;50.890;4.722;2023-01-08T03:39:55;9.6;;;0.8;;
6561;SDS011;3314;50.890;4.722;2023-01-08T03:41:56;5.6;;;0.7;;
6561;SDS011;3314;50.890;4.722;2023-01-08T03:43:57;9.5;;;1.0;;
6561;SDS011;3314;50.890;4.722;2023-01-08T03:45:57;5.9;;;1.0;;
6561;SDS011;3314;50.890;4.722;2023-01-08T03:47:59;8.5;;;1.0;;
6561;SDS011;3314;50.890;4.722;2023-01-08T03:50:02;7.6;;;1.1;;
6561;SDS011;3314;50.890;4.722;2023-01-08T03:51:51;5.6;;;0.8;;
6561;SDS011;3314;50.890;4.722;2023-01-08T03:53:52;5.9;;;0.8;;
6561;SDS011;3314;50.890;4.722;2023-01-08T03:55:52;7.1;;;0.9;;
6561;SDS011;3314;50.890;4.722;2023-01-08T03:57:52;6.1;;;0.9;;
6561;SDS011;3314;50.890;4.722;2023-01-08T03:59:52;9.6;;;0.9;;
6561;SDS011;3314;50.890;4.722;2023-01-08T04:01:52;10.8;;;1.1;;
6561;SDS011;3314;50.890;4.722;2023-01-08T04:03:51;10.3;;;1.1;;
6561;SDS011;3314;50.890;4.722;2023-01-08T04:05:51;6.2;;;0.7;;
6561;SDS011;3314;50.890;4.722;2023-01-08T04:07:53;6.0;;;1.0;;
6561;SDS011;3314;50.890;4.722;2023-01-08T04:09:53;5.3;;;0.9;;
6561;SDS011;3314;50.890;4.722;2023-01-08T04:11:53;7.3;;;0.8;;
6561;SDS011;3314;50.890;4.722;2023-01-08T04:13:53;6.3;;;0.7;;
6561;SDS011;3314;50.890;4.722;2023-01-08T04:15:52;5.4;;;0.7;;
6561;SDS011;3314;50.890;4.722;2023-01-08T04:17:52;6.2;;;0.8;;
6561;SDS011;3314;50.890;4.722;2023-01-08T04:19:52;9.1;;;1.4;;
6561;SDS011;3314;50.890;4.722;2023-01-08T04:21:51;6.0;;;0.8;;
6561;SDS011;3314;50.890;4.722;2023-01-08T04:23:51;5.4;;;0.7;;
6561;SDS011;3314;50.890;4.722;2023-01-08T04:25:51;6.2;;;0.8;;
6561;SDS011;3314;50.890;4.722;2023-01-08T04:27:51;11.1;;;0.9;;
6561;SDS011;3314;50.890;4.722;2023-01-08T04:29:50;6.9;;;0.7;;
6561;SDS011;3314;50.890;4.722;2023-01-08T04:31:50;9.2;;;1.0;;
6561;SDS011;3314;50.890;4.722;2023-01-08T04:33:50;6.4;;;0.7;;
6561;SDS011;3314;50.890;4.722;2023-01-08T04:35:50;11.4;;;1.3;;
6561;SDS011;3314;50.890;4.722;2023-01-08T04:37:49;5.8;;;1.0;;
6561;SDS011;3314;50.890;4.722;2023-01-08T04:39:49;8.4;;;0.8;;
6561;SDS011;3314;50.890;4.722;2023-01-08T04:41:49;8.2;;;1.3;;
6561;SDS011;3314;50.890;4.722;2023-01-08T04:43:48;7.3;;;0.9;;
6561;SDS011;3314;50.890;4.722;2023-01-08T04:45:48;6.9;;;0.8;;
6561;SDS011;3314;50.890;4.722;2023-01-08T04:47:48;7.0;;;0.8;;
6561;SDS011;3314;50.890;4.722;2023-01-08T04:49:41;9.4;;;1.1;;
6561;SDS011;3314;50.890;4.722;2023-01-08T04:51:41;7.4;;;1.0;;
6561;SDS011;3314;50.890;4.722;2023-01-08T04:53:41;9.4;;;0.9;;
6561;SDS011;3314;50.890;4.722;2023-01-08T04:55:41;9.2;;;1.0;;
6561;SDS011;3314;50.890;4.722;2023-01-08T04:57:40;9.9;;;1.2;;
6561;SDS011;3314;50.890;4.722;2023-01-08T04:59:40;11.1;;;0.9;;
6561;SDS011;3314;50.890;4.722;2023-01-08T05:01:40;10.4;;;0.9;;
6561;SDS011;3314;50.890;4.722;2023-01-08T05:03:39;11.4;;;1.8;;
6561;SDS011;3314;50.890;4.722;2023-01-08T05:05:39;7.6;;;0.8;;
6561;SDS011;3314;50.890;4.722;2023-01-08T05:07:38;11.2;;;1.1;;
6561;SDS011;3314;50.890;4.722;2023-01-08T05:09:38;9.3;;;1.0;;
6561;SDS011;3314;50.890;4.722;2023-01-08T05:11:38;6.5;;;1.0;;
6561;SDS011;3314;50.890;4.722;2023-01-08T05:13:38;11.0;;;1.0;;
6561;SDS011;3314;50.890;4.722;2023-01-08T05:15:37;8.7;;;1.2;;
6561;SDS011;3314;50.890;4.722;2023-01-08T05:17:37;8.6;;;1.1;;
6561;SDS011;3314;50.890;4.722;2023-01-08T05:19:36;8.5;;;1.1;;
6561;SDS011;3314;50.890;4.722;2023-01-08T05:21:36;9.0;;;0.9;;
6561;SDS011;3314;50.890;4.722;2023-01-08T05:23:36;8.0;;;1.0;;
6561;SDS011;3314;50.890;4.722;2023-01-08T05:25:36;11.4;;;1.3;;
6561;SDS011;3314;50.890;4.722;2023-01-08T05:27:35;8.6;;;1.1;;
6561;SDS011;3314;50.890;4.722;2023-01-08T05:29:35;6.6;;;0.9;;
6561;SDS011;3314;50.890;4.722;2023-01-08T05:31:35;6.4;;;0.7;;
6561;SDS011;3314;50.890;4.722;2023-01-08T05:33:34;10.7;;;1.0;;
6561;SDS011;3314;50.890;4.722;2023-01-08T05:35:34;9.1;;;1.0;;
6561;SDS011;3314;50.890;4.722;2023-01-08T05:37:33;9.9;;;1.1;;
6561;SDS011;3314;50.890;4.722;2023-01-08T05:39:33;9.0;;;1.6;;
6561;SDS011;3314;50.890;4.722;2023-01-08T05:41:33;10.5;;;1.2;;
6561;SDS011;3314;50.890;4.722;2023-01-08T05:43:33;8.2;;;0.8;;
6561;SDS011;3314;50.890;4.722;2023-01-08T05:45:33;8.5;;;1.6;;
6561;SDS011;3314;50.890;4.722;2023-01-08T05:47:32;11.9;;;1.0;;
6561;SDS011;3314;50.890;4.722;2023-01-08T05:49:32;8.0;;;0.9;;
6561;SDS011;3314;50.890;4.722;2023-01-08T05:51:32;8.8;;;1.4;;
6561;SDS011;3314;50.890;4.722;2023-01-08T05:53:32;9.4;;;0.9;;
6561;SDS011;3314;50.890;4.722;2023-01-08T05:55:32;11.1;;;0.9;;
6561;SDS011;3314;50.890;4.722;2023-01-08T05:57:31;9.2;;;1.6;;
6561;SDS011;3314;50.890;4.722;2023-01-08T05:59:31;8.1;;;0.9;;
6561;SDS011;3314;50.890;4.722;2023-01-08T06:01:31;12.9;;;1.0;;
6561;SDS011;3314;50.890;4.722;2023-01-08T06:03:31;7.7;;;1.1;;
6561;SDS011;3314;50.890;4.722;2023-01-08T06:05:31;10.5;;;0.8;;
6561;SDS011;3314;50.890;4.722;2023-01-08T06:07:31;7.3;;;1.0;;
6561;SDS011;3314;50.890;4.722;2023-01-08T06:09:30;9.3;;;1.5;;
6561;SDS011;3314;50.890;4.722;2023-01-08T06:11:30;7.3;;;1.3;;
6561;SDS011;3314;50.890;4.722;2023-01-08T06:13:30;13.9;;;1.3;;
6561;SDS011;3314;50.890;4.722;2023-01-08T06:15:30;15.5;;;1.3;;
6561;SDS011;3314;50.890;4.722;2023-01-08T06:17:30;8.5;;;1.1;;
6561;SDS011;3314;50.890;4.722;2023-01-08T06:19:29;7.1;;;0.8;;
6561;SDS011;3314;50.890;4.722;2023-01-08T06:21:29;11.1;;;1.9;;
6561;SDS011;3314;50.890;4.722;2023-01-08T06:23:29;9.2;;;1.0;;
6561;SDS011;3314;50.890;4.722;2023-01-08T06:25:29;9.9;;;1.5;;
6561;SDS011;3314;50.890;4.722;2023-01-08T06:27:29;8.9;;;1.0;;
6561;SDS011;3314;50.890;4.722;2023-01-08T06:29:29;10.1;;;1.0;;
6561;SDS011;3314;50.890;4.722;2023-01-08T06:31:29;9.2;;;1.3;;
6561;SDS011;3314;50.890;4.722;2023-01-08T06:33:29;9.7;;;1.0;;
6561;SDS011;3314;50.890;4.722;2023-01-08T06:35:28;8.7;;;1.0;;
6561;SDS011;3314;50.890;4.722;2023-01-08T06:37:28;11.6;;;1.1;;
6561;SDS011;3314;50.890;4.722;2023-01-08T06:39:28;9.0;;;1.1;;
6561;SDS011;3314;50.890;4.722;2023-01-08T06:41:28;7.3;;;1.4;;
6561;SDS011;3314;50.890;4.722;2023-01-08T06:43:27;9.7;;;1.0;;
6561;SDS011;3314;50.890;4.722;2023-01-08T06:45:27;7.7;;;1.1;;
6561;SDS011;3314;50.890;4.722;2023-01-08T06:47:26;12.9;;;1.3;;
6561;SDS011;3314;50.890;4.722;2023-01-08T06:49:26;8.5;;;1.2;;
6561;SDS011;3314;50.890;4.722;2023-01-08T06:51:26;12.5;;;1.1;;
6561;SDS011;3314;50.890;4.722;2023-01-08T06:53:26;10.0;;;1.0;;
6561;SDS011;3314;50.890;4.722;2023-01-08T06:55:26;8.9;;;1.5;;
6561;SDS011;3314;50.890;4.722;2023-01-08T06:57:26;7.1;;;0.8;;
6561;SDS011;3314;50.890;4.722;2023-01-08T06:59:26;11.6;;;1.5;;
6561;SDS011;3314;50.890;4.722;2023-01-08T07:01:25;9.5;;;0.8;;
6561;SDS011;3314;50.890;4.722;2023-01-08T07:03:25;16.7;;;1.8;;
6561;SDS011;3314;50.890;4.722;2023-01-08T07:05:25;16.7;;;1.4;;
6561;SDS011;3314;50.890;4.722;2023-01-08T07:07:15;8.7;;;1.2;;
6561;SDS011;3314;50.890;4.722;2023-01-08T07:09:15;11.1;;;1.6;;
6561;SDS011;3314;50.890;4.722;2023-01-08T07:11:15;13.6;;;2.0;;
6561;SDS011;3314;50.890;4.722;2023-01-08T07:13:15;11.7;;;2.0;;
6561;SDS011;3314;50.890;4.722;2023-01-08T07:15:15;12.4;;;1.2;;
6561;SDS011;3314;50.890;4.722;2023-01-08T07:17:15;10.0;;;1.1;;
6561;SDS011;3314;50.890;4.722;2023-01-08T07:19:14;10.2;;;1.3;;
6561;SDS011;3314;50.890;4.722;2023-01-08T07:21:14;10.5;;;1.0;;
6561;SDS011;3314;50.890;4.722;2023-01-08T07:23:14;12.7;;;1.5;;
6561;SDS011;3314;50.890;4.722;2023-01-08T07:25:14;11.9;;;1.5;;
6561;SDS011;3314;50.890;4.722;2023-01-08T07:27:13;8.0;;;1.1;;
6561;SDS011;3314;50.890;4.722;2023-01-08T07:29:13;8.2;;;1.1;;
6561;SDS011;3314;50.890;4.722;2023-01-08T07:31:13;9.7;;;1.9;;
6561;SDS011;3314;50.890;4.722;2023-01-08T07:33:13;7.2;;;1.1;;
6561;SDS011;3314;50.890;4.722;2023-01-08T07:35:13;14.6;;;1.3;;
6561;SDS011;3314;50.890;4.722;2023-01-08T07:37:13;9.1;;;1.3;;
6561;SDS011;3314;50.890;4.722;2023-01-08T07:39:13;10.3;;;1.9;;
6561;SDS011;3314;50.890;4.722;2023-01-08T07:41:15;11.8;;;1.4;;
6561;SDS011;3314;50.890;4.722;2023-01-08T07:43:15;12.1;;;1.4;;
6561;SDS011;3314;50.890;4.722;2023-01-08T07:45:15;14.8;;;1.3;;
6561;SDS011;3314;50.890;4.722;2023-01-08T07:47:15;7.6;;;1.2;;
6561;SDS011;3314;50.890;4.722;2023-01-08T07:49:15;6.7;;;0.9;;
6561;SDS011;3314;50.890;4.722;2023-01-08T07:51:14;9.4;;;1.1;;
6561;SDS011;3314;50.890;4.722;2023-01-08T07:53:16;10.6;;;1.4;;
6561;SDS011;3314;50.890;4.722;2023-01-08T07:55:06;6.9;;;1.6;;
6561;SDS011;3314;50.890;4.722;2023-01-08T07:57:06;12.9;;;1.9;;
6561;SDS011;3314;50.890;4.722;2023-01-08T07:59:06;6.9;;;1.1;;
6561;SDS011;3314;50.890;4.722;2023-01-08T08:01:07;10.0;;;1.6;;
6561;SDS011;3314;50.890;4.722;2023-01-08T08:03:08;9.8;;;1.3;;
6561;SDS011;3314;50.890;4.722;2023-01-08T08:05:08;9.3;;;1.8;;
6561;SDS011;3314;50.890;4.722;2023-01-08T08:07:08;9.0;;;1.8;;
6561;SDS011;3314;50.890;4.722;2023-01-08T08:09:08;6.6;;;1.1;;
6561;SDS011;3314;50.890;4.722;2023-01-08T08:11:08;9.3;;;0.9;;
6561;SDS011;3314;50.890;4.722;2023-01-08T08:13:08;13.9;;;1.1;;
6561;SDS011;3314;50.890;4.722;2023-01-08T08:15:09;6.8;;;1.1;;
6561;SDS011;3314;50.890;4.722;2023-01-08T08:17:08;16.5;;;1.7;;
6561;SDS011;3314;50.890;4.722;2023-01-08T08:19:09;13.5;;;1.7;;
6561;SDS011;3314;50.890;4.722;2023-01-08T08:21:09;7.8;;;1.4;;
6561;SDS011;3314;50.890;4.722;2023-01-08T08:23:10;9.9;;;1.5;;
6561;SDS011;3314;50.890;4.722;2023-01-08T08:25:10;9.5;;;1.7;;
6561;SDS011;3314;50.890;4.722;2023-01-08T08:27:00;15.6;;;2.2;;
6561;SDS011;3314;50.890;4.722;2023-01-08T08:28:59;7.6;;;1.1;;
6561;SDS011;3314;50.890;4.722;2023-01-08T08:30:59;14.1;;;1.2;;
6561;SDS011;3314;50.890;4.722;2023-01-08T08:32:59;7.2;;;1.3;;
6561;SDS011;3314;50.890;4.722;2023-01-08T08:35:00;8.6;;;1.1;;
6561;SDS011;3314;50.890;4.722;2023-01-08T08:37:00;8.9;;;1.2;;
6561;SDS011;3314;50.890;4.722;2023-01-08T08:39:00;10.6;;;1.4;;
6561;SDS011;3314;50.890;4.722;2023-01-08T08:41:00;11.8;;;1.5;;
6561;SDS011;3314;50.890;4.722;2023-01-08T08:43:01;9.3;;;1.5;;
6561;SDS011;3314;50.890;4.722;2023-01-08T08:45:01;9.5;;;1.5;;
6561;SDS011;3314;50.890;4.722;2023-01-08T08:47:01;10.9;;;1.1;;
6561;SDS011;3314;50.890;4.722;2023-01-08T08:49:00;9.0;;;1.3;;
6561;SDS011;3314;50.890;4.722;2023-01-08T08:51:00;18.0;;;2.3;;
6561;SDS011;3314;50.890;4.722;2023-01-08T08:53:00;6.1;;;1.0;;
6561;SDS011;3314;50.890;4.722;2023-01-08T08:55:00;7.5;;;0.9;;
6561;SDS011;3314;50.890;4.722;2023-01-08T08:57:00;9.0;;;1.0;;
6561;SDS011;3314;50.890;4.722;2023-01-08T08:59:00;8.3;;;1.6;;
6561;SDS011;3314;50.890;4.722;2023-01-08T09:01:00;8.2;;;0.8;;
6561;SDS011;3314;50.890;4.722;2023-01-08T09:03:00;5.8;;;0.8;;
6561;SDS011;3314;50.890;4.722;2023-01-08T09:04:59;5.7;;;0.6;;
6561;SDS011;3314;50.890;4.722;2023-01-08T09:06:59;7.5;;;1.2;;
6561;SDS011;3314;50.890;4.722;2023-01-08T09:08:59;7.0;;;0.8;;
6561;SDS011;3314;50.890;4.722;2023-01-08T09:11:01;7.6;;;0.9;;
6561;SDS011;3314;50.890;4.722;2023-01-08T09:13:00;7.3;;;0.7;;
6561;SDS011;3314;50.890;4.722;2023-01-08T09:15:00;5.0;;;0.5;;
6561;SDS011;3314;50.890;4.722;2023-01-08T09:17:00;5.0;;;0.5;;
6561;SDS011;3314;50.890;4.722;2023-01-08T09:19:00;5.0;;;0.5;;
6561;SDS011;3314;50.890;4.722;2023-01-08T09:21:03;6.4;;;1.0;;
6561;SDS011;3314;50.890;4.722;2023-01-08T09:22:50;4.9;;;0.5;;
6561;SDS011;3314;50.890;4.722;2023-01-08T09:24:50;4.7;;;0.5;;
6561;SDS011;3314;50.890;4.722;2023-01-08T09:26:51;5.0;;;0.6;;
6561;SDS011;3314;50.890;4.722;2023-01-08T09:28:51;5.9;;;0.5;;
6561;SDS011;3314;50.890;4.722;2023-01-08T09:30:51;5.1;;;0.7;;
6561;SDS011;3314;50.890;4.722;2023-01-08T09:32:51;5.1;;;0.5;;
6561;SDS011;3314;50.890;4.722;2023-01-08T09:34:54;5.0;;;0.5;;
6561;SDS011;3314;50.890;4.722;2023-01-08T09:36:53;4.6;;;0.5;;
6561;SDS011;3314;50.890;4.722;2023-01-08T09:38:53;4.7;;;0.4;;
6561;SDS011;3314;50.890;4.722;2023-01-08T09:40:55;6.5;;;0.6;;
6561;SDS011;3314;50.890;4.722;2023-01-08T09:42:45;5.2;;;0.6;;
6561;SDS011;3314;50.890;4.722;2023-01-08T09:44:46;4.7;;;0.4;;
6561;SDS011;3314;50.890;4.722;2023-01-08T09:46:47;5.1;;;0.4;;
6561;SDS011;3314;50.890;4.722;2023-01-08T09:48:47;4.5;;;0.4;;
6561;SDS011;3314;50.890;4.722;2023-01-08T09:50:47;4.6;;;0.4;;
6561;SDS011;3314;50.890;4.722;2023-01-08T09:52:47;4.8;;;0.4;;
6561;SDS011;3314;50.890;4.722;2023-01-08T09:54:47;4.6;;;0.4;;
6561;SDS011;3314;50.890;4.722;2023-01-08T09:56:46;5.7;;;0.5;;
6561;SDS011;3314;50.890;4.722;2023-01-08T09:58:48;5.8;;;0.5;;
6561;SDS011;3314;50.890;4.722;2023-01-08T10:00:48;8.9;;;1.0;;
6561;SDS011;3314;50.890;4.722;2023-01-08T10:02:48;4.5;;;0.4;;
6561;SDS011;3314;50.890;4.722;2023-01-08T10:04:50;5.3;;;0.7;;
6561;SDS011;3314;50.890;4.722;2023-01-08T10:06:44;6.1;;;0.7;;
6561;SDS011;3314;50.890;4.722;2023-01-08T10:08:45;5.0;;;0.6;;
6561;SDS011;3314;50.890;4.722;2023-01-08T10:10:46;6.0;;;0.8;;
6561;SDS011;3314;50.890;4.722;2023-01-08T10:12:45;5.3;;;0.6;;
6561;SDS011;3314;50.890;4.722;2023-01-08T10:14:49;6.1;;;0.8;;
6561;SDS011;3314;50.890;4.722;2023-01-08T10:16:51;5.2;;;0.6;;
6561;SDS011;3314;50.890;4.722;2023-01-08T10:18:40;8.1;;;0.7;;
6561;SDS011;3314;50.890;4.722;2023-01-08T10:20:40;5.8;;;0.6;;
6561;SDS011;3314;50.890;4.722;2023-01-08T10:22:40;8.6;;;0.7;;
6561;SDS011;3314;50.890;4.722;2023-01-08T10:24:40;5.5;;;0.7;;
6561;SDS011;3314;50.890;4.722;2023-01-08T10:26:39;6.4;;;0.8;;
6561;SDS011;3314;50.890;4.722;2023-01-08T10:28:39;5.5;;;0.7;;
6561;SDS011;3314;50.890;4.722;2023-01-08T10:30:39;6.5;;;1.0;;
6561;SDS011;3314;50.890;4.722;2023-01-08T10:32:44;6.0;;;0.6;;
6561;SDS011;3314;50.890;4.722;2023-01-08T10:36:45;8.4;;;1.1;;
6561;SDS011;3314;50.890;4.722;2023-01-08T10:38:48;6.7;;;0.6;;
6561;SDS011;3314;50.890;4.722;2023-01-08T10:40:37;6.0;;;0.9;;
6561;SDS011;3314;50.890;4.722;2023-01-08T10:42:38;5.7;;;0.7;;
6561;SDS011;3314;50.890;4.722;2023-01-08T10:44:38;9.0;;;1.1;;
6561;SDS011;3314;50.890;4.722;2023-01-08T10:46:40;8.0;;;0.5;;
6561;SDS011;3314;50.890;4.722;2023-01-08T10:48:43;7.1;;;0.9;;
6561;SDS011;3314;50.890;4.722;2023-01-08T10:50:33;7.4;;;0.8;;
6561;SDS011;3314;50.890;4.722;2023-01-08T10:52:33;5.9;;;0.8;;
6561;SDS011;3314;50.890;4.722;2023-01-08T10:54:33;6.2;;;0.7;;
6561;SDS011;3314;50.890;4.722;2023-01-08T10:56:40;5.4;;;0.8;;
6561;SDS011;3314;50.890;4.722;2023-01-08T10:58:40;7.3;;;0.8;;
6561;SDS011;3314;50.890;4.722;2023-01-08T11:00:40;10.6;;;0.7;;
6561;SDS011;3314;50.890;4.722;2023-01-08T11:02:40;5.0;;;0.7;;
6561;SDS011;3314;50.890;4.722;2023-01-08T11:04:40;5.5;;;0.7;;
6561;SDS011;3314;50.890;4.722;2023-01-08T11:06:32;8.1;;;0.7;;
6561;SDS011;3314;50.890;4.722;2023-01-08T11:08:32;6.3;;;0.6;;
6561;SDS011;3314;50.890;4.722;2023-01-08T11:10:32;8.7;;;0.9;;
6561;SDS011;3314;50.890;4.722;2023-01-08T11:12:33;5.6;;;0.6;;
6561;SDS011;3314;50.890;4.722;2023-01-08T11:14:34;7.9;;;0.8;;
6561;SDS011;3314;50.890;4.722;2023-01-08T11:16:35;8.8;;;0.7;;
6561;SDS011;3314;50.890;4.722;2023-01-08T11:18:40;10.2;;;1.0;;
6561;SDS011;3314;50.890;4.722;2023-01-08T11:20:29;8.7;;;1.4;;
6561;SDS011;3314;50.890;4.722;2023-01-08T11:22:30;5.5;;;0.7;;
6561;SDS011;3314;50.890;4.722;2023-01-08T11:24:31;5.4;;;0.6;;
6561;SDS011;3314;50.890;4.722;2023-01-08T11:26:31;12.4;;;0.9;;
6561;SDS011;3314;50.890;4.722;2023-01-08T11:28:32;6.9;;;1.0;;
6561;SDS011;3314;50.890;4.722;2023-01-08T11:30:26;7.1;;;0.7;;
6561;SDS011;3314;50.890;4.722;2023-01-08T11:32:29;5.4;;;0.9;;
6561;SDS011;3314;50.890;4.722;2023-01-08T11:34:35;8.1;;;0.8;;
6561;SDS011;3314;50.890;4.722;2023-01-08T11:36:26;7.7;;;0.7;;
6561;SDS011;3314;50.890;4.722;2023-01-08T11:38:26;6.2;;;0.9;;
6561;SDS011;3314;50.890;4.722;2023-01-08T11:40:30;8.6;;;0.9;;
6561;SDS011;3314;50.890;4.722;2023-01-08T11:42:36;9.5;;;1.1;;
6561;SDS011;3314;50.890;4.722;2023-01-08T11:44:29;8.5;;;0.9;;
6561;SDS011;3314;50.890;4.722;2023-01-08T11:46:32;7.0;;;0.7;;
6561;SDS011;3314;50.890;4.722;2023-01-08T11:48:28;6.4;;;0.8;;
6561;SDS011;3314;50.890;4.722;2023-01-08T11:50:31;7.5;;;1.0;;
6561;SDS011;3314;50.890;4.722;2023-01-08T11:52:26;6.9;;;0.8;;
6561;SDS011;3314;50.890;4.722;2023-01-08T11:54:30;6.4;;;0.8;;
6561;SDS011;3314;50.890;4.722;2023-01-08T11:56:27;7.1;;;0.8;;
6561;SDS011;3314;50.890;4.722;2023-01-08T11:58:33;7.2;;;0.9;;
6561;SDS011;3314;50.890;4.722;2023-01-08T12:00:31;6.5;;;1.0;;
6561;SDS011;3314;50.890;4.722;2023-01-08T12:02:25;8.7;;;1.0;;
6561;SDS011;3314;50.890;4.722;2023-01-08T12:04:33;7.4;;;0.8;;
6561;SDS011;3314;50.890;4.722;2023-01-08T12:06:25;9.9;;;1.0;;
6561;SDS011;3314;50.890;4.722;2023-01-08T12:08:27;8.4;;;0.9;;
6561;SDS011;3314;50.890;4.722;2023-01-08T12:10:29;7.1;;;0.8;;
6561;SDS011;3314;50.890;4.722;2023-01-08T12:12:23;9.2;;;0.9;;
6561;SDS011;3314;50.890;4.722;2023-01-08T12:14:30;8.2;;;1.1;;
6561;SDS011;3314;50.890;4.722;2023-01-08T12:16:24;7.6;;;0.9;;
6561;SDS011;3314;50.890;4.722;2023-01-08T12:18:29;10.3;;;0.9;;
6561;SDS011;3314;50.890;4.722;2023-01-08T12:20:22;9.5;;;1.1;;
6561;SDS011;3314;50.890;4.722;2023-01-08T12:22:31;6.3;;;0.8;;
6561;SDS011;3314;50.890;4.722;2023-01-08T12:24:26;9.0;;;0.9;;
6561;SDS011;3314;50.890;4.722;2023-01-08T12:26:19;6.8;;;0.9;;
6561;SDS011;3314;50.890;4.722;2023-01-08T12:28:28;8.7;;;0.9;;
6561;SDS011;3314;50.890;4.722;2023-01-08T12:30:23;9.3;;;1.0;;
6561;SDS011;3314;50.890;4.722;2023-01-08T12:32:26;8.7;;;1.1;;
6561;SDS011;3314;50.890;4.722;2023-01-08T12:34:16;8.4;;;1.0;;
6561;SDS011;3314;50.890;4.722;2023-01-08T12:36:19;10.1;;;1.0;;
6561;SDS011;3314;50.890;4.722;2023-01-08T12:38:19;6.6;;;0.8;;
6561;SDS011;3314;50.890;4.722;2023-01-08T12:40:21;7.9;;;1.3;;
6561;SDS011;3314;50.890;4.722;2023-01-08T12:42:24;7.4;;;1.0;;
6561;SDS011;3314;50.890;4.722;2023-01-08T12:44:15;6.1;;;0.7;;
6561;SDS011;3314;50.890;4.722;2023-01-08T12:46:16;5.7;;;1.0;;